createdAt,value
2019-02-15T00:01:56.838Z,4.73
2019-02-15T00:04:26.034Z,4.73
2019-02-15T00:06:55.303Z,4.74
2019-02-15T00:09:24.739Z,4.77
2019-02-15T00:11:53.932Z,4.76
2019-02-15T00:14:23.152Z,4.74
2019-02-15T00:16:52.441Z,4.72
2019-02-15T00:19:30.562Z,4.73
2019-02-15T00:21:59.938Z,4.75
2019-02-15T00:24:29.344Z,4.72
2019-02-15T00:26:58.657Z,4.71
2019-02-15T00:29:28.032Z,4.68
2019-02-15T00:31:57.218Z,4.71
2019-02-15T00:34:29.117Z,4.69
2019-02-15T00:36:58.301Z,4.67
2019-02-15T00:39:28.781Z,4.65
2019-02-15T00:41:58.141Z,4.65
2019-02-15T00:44:27.382Z,4.27
2019-02-15T00:47:14.417Z,4.55
2019-02-15T00:50:05.396Z,4.52
2019-02-15T00:52:52.687Z,4.47
2019-02-15T00:55:37.249Z,4.45
2019-02-15T00:58:34.899Z,4.44
2019-02-15T01:01:23.167Z,4.42
2019-02-15T01:04:10.487Z,4.40
2019-02-15T01:06:50.320Z,4.39
2019-02-15T01:09:41.827Z,4.38
2019-02-15T01:12:15.031Z,4.37
2019-02-15T01:14:44.307Z,4.36
2019-02-15T01:17:13.590Z,4.36
2019-02-15T01:19:42.804Z,4.35
2019-02-15T01:22:12.181Z,4.35
2019-02-15T01:24:41.480Z,4.36
2019-02-15T01:27:32.337Z,4.37
2019-02-15T01:30:23.563Z,4.33
2019-02-15T01:33:11.072Z,4.31
2019-02-15T01:35:59.277Z,4.27
2019-02-15T01:38:39.464Z,4.25
2019-02-15T01:41:19.270Z,4.22
2019-02-15T01:43:55.992Z,4.19
2019-02-15T01:46:43.176Z,4.19
2019-02-15T01:49:12.628Z,4.18
2019-02-15T01:51:41.821Z,4.18
2019-02-15T01:54:11.322Z,4.18
2019-02-15T01:56:40.680Z,4.19
2019-02-15T01:59:09.888Z,4.20
2019-02-15T02:01:39.124Z,4.19
2019-02-15T02:04:09.338Z,4.20
2019-02-15T02:06:38.546Z,4.21
2019-02-15T02:09:08.222Z,4.21
2019-02-15T02:11:37.552Z,4.19
2019-02-15T02:14:06.857Z,4.22
2019-02-15T02:16:36.070Z,4.21
2019-02-15T02:19:05.529Z,4.25
2019-02-15T02:21:34.712Z,4.27
2019-02-15T02:24:03.941Z,4.26
2019-02-15T02:26:33.443Z,4.30
2019-02-15T02:29:02.633Z,4.31
2019-02-15T02:31:32.668Z,4.33
2019-02-15T02:34:02.056Z,4.34
2019-02-15T02:36:51.277Z,4.33
2019-02-15T02:39:20.622Z,4.36
2019-02-15T02:41:49.803Z,4.39
2019-02-15T02:44:19.030Z,4.38
2019-02-15T02:46:48.611Z,4.40
2019-02-15T02:49:17.791Z,4.41
2019-02-15T02:51:47.018Z,4.42
2019-02-15T02:54:16.425Z,4.43
2019-02-15T02:56:45.604Z,4.42
2019-02-15T02:59:14.875Z,4.39
2019-02-15T03:01:44.191Z,4.40
2019-02-15T03:04:13.568Z,4.37
2019-02-15T03:06:42.903Z,4.37
2019-02-15T03:09:12.320Z,4.37
2019-02-15T03:11:41.504Z,4.37
2019-02-15T03:14:11.903Z,4.37
2019-02-15T03:16:41.294Z,4.37
2019-02-15T03:19:12.064Z,4.37
2019-02-15T03:21:41.303Z,4.39
2019-02-15T03:24:10.577Z,4.38
2019-02-15T03:26:39.829Z,4.35
2019-02-15T03:29:09.082Z,4.34
2019-02-15T03:31:38.573Z,4.34
2019-02-15T03:34:07.737Z,4.33
2019-02-15T03:36:56.688Z,4.30
2019-02-15T03:39:39.861Z,4.29
2019-02-15T03:42:11.309Z,4.28
2019-02-15T03:44:40.506Z,4.28
2019-02-15T03:47:09.700Z,4.27
2019-02-15T03:49:39.020Z,4.28
2019-02-15T03:52:08.799Z,4.26
2019-02-15T03:54:37.990Z,4.24
2019-02-15T03:57:07.414Z,4.23
2019-02-15T03:59:36.975Z,4.18
2019-02-15T04:02:08.572Z,4.18
2019-02-15T04:04:37.789Z,4.15
2019-02-15T04:07:07.403Z,4.15
2019-02-15T04:09:36.797Z,4.15
2019-02-15T04:12:06.031Z,4.14
2019-02-15T04:14:35.333Z,4.17
2019-02-15T04:17:04.895Z,4.15
2019-02-15T04:19:34.142Z,4.15
2019-02-15T04:22:03.319Z,4.13
2019-02-15T04:24:32.818Z,3.71
2019-02-15T04:27:02.150Z,4.10
2019-02-15T04:29:31.347Z,4.09
2019-02-15T04:32:00.723Z,4.08
2019-02-15T04:34:30.036Z,4.09
2019-02-15T04:36:59.361Z,4.10
2019-02-15T04:39:28.728Z,4.13
2019-02-15T04:41:58.001Z,4.14
2019-02-15T04:44:27.185Z,4.14
2019-02-15T04:46:56.862Z,4.14
2019-02-15T04:49:26.072Z,4.13
2019-02-15T04:51:55.271Z,4.13
2019-02-15T04:54:24.902Z,4.13
2019-02-15T04:56:54.133Z,4.13
2019-02-15T04:59:23.339Z,4.12
2019-02-15T05:01:52.903Z,4.11
2019-02-15T05:04:22.131Z,4.12
2019-02-15T05:06:51.321Z,4.12
2019-02-15T05:09:20.693Z,4.11
2019-02-15T05:11:50.047Z,4.09
2019-02-15T05:14:19.242Z,4.09
2019-02-15T05:16:48.709Z,4.09
2019-02-15T05:19:18.017Z,4.08
2019-02-15T05:21:47.206Z,4.07
2019-02-15T05:24:16.597Z,4.05
2019-02-15T05:26:45.832Z,4.06
2019-02-15T05:29:15.033Z,4.05
2019-02-15T05:31:44.494Z,4.05
2019-02-15T05:34:13.754Z,4.04
2019-02-15T05:36:42.935Z,4.03
2019-02-15T05:39:12.511Z,4.04
2019-02-15T05:41:41.725Z,4.03
2019-02-15T05:44:10.905Z,4.05
2019-02-15T05:46:40.188Z,4.07
2019-02-15T05:49:09.447Z,4.08
2019-02-15T05:51:38.620Z,4.08
2019-02-15T05:54:08.090Z,4.09
2019-02-15T05:56:37.335Z,4.09
2019-02-15T05:59:06.539Z,4.08
2019-02-15T06:01:36.100Z,4.09
2019-02-15T06:04:05.311Z,4.07
2019-02-15T06:06:34.486Z,4.07
2019-02-15T06:09:04.886Z,4.07
2019-02-15T06:11:34.090Z,4.07
2019-02-15T06:14:03.399Z,4.08
2019-02-15T06:16:32.810Z,4.07
2019-02-15T06:19:02.023Z,4.08
2019-02-15T06:21:31.214Z,4.09
2019-02-15T06:24:00.486Z,4.07
2019-02-15T06:26:29.877Z,4.08
2019-02-15T06:28:59.058Z,4.11
2019-02-15T06:31:28.411Z,4.12
2019-02-15T06:33:57.718Z,4.09
2019-02-15T06:36:30.518Z,4.10
2019-02-15T06:38:59.944Z,4.12
2019-02-15T06:41:29.348Z,4.09
2019-02-15T06:43:58.676Z,4.08
2019-02-15T06:46:27.864Z,4.08
2019-02-15T06:48:57.413Z,4.08
2019-02-15T06:51:26.703Z,4.10
2019-02-15T06:53:55.884Z,4.11
2019-02-15T06:56:25.124Z,4.11
2019-02-15T06:59:31.476Z,4.10
2019-02-15T07:02:22.688Z,4.10
2019-02-15T07:05:09.763Z,4.14
2019-02-15T07:07:38.986Z,4.16
2019-02-15T07:10:08.182Z,4.17
2019-02-15T07:12:37.499Z,4.19
2019-02-15T07:15:07.364Z,4.19
2019-02-15T07:17:36.627Z,4.22
2019-02-15T07:20:07.042Z,4.24
2019-02-15T07:22:36.373Z,4.27
2019-02-15T07:25:06.289Z,4.32
2019-02-15T07:27:35.861Z,4.34
2019-02-15T07:30:05.848Z,4.38
2019-02-15T07:32:35.108Z,4.44
2019-02-15T07:35:04.486Z,4.47
2019-02-15T07:37:33.783Z,4.53
2019-02-15T07:40:03.003Z,4.58
2019-02-15T07:42:32.596Z,4.63
2019-02-15T07:45:01.814Z,4.63
2019-02-15T07:47:31.009Z,4.65
2019-02-15T07:50:00.483Z,3.86
2019-02-15T07:52:29.750Z,4.74
2019-02-15T07:54:58.989Z,4.81
2019-02-15T07:57:28.273Z,4.89
2019-02-15T07:59:57.498Z,4.98
2019-02-15T08:02:26.708Z,5.03
2019-02-15T08:04:56.078Z,5.07
2019-02-15T08:07:25.438Z,5.07
2019-02-15T08:09:54.645Z,5.07
2019-02-15T08:12:24.045Z,5.08
2019-02-15T08:14:53.280Z,5.11
2019-02-15T08:17:22.588Z,5.10
2019-02-15T08:19:51.898Z,5.13
2019-02-15T08:22:22.722Z,5.14
2019-02-15T08:24:52.159Z,5.12
2019-02-15T08:27:21.521Z,5.07
2019-02-15T08:29:50.739Z,5.08
2019-02-15T08:32:20.070Z,5.14
2019-02-15T08:34:49.732Z,5.18
2019-02-15T08:37:19.097Z,5.04
2019-02-15T08:39:49.349Z,5.26
2019-02-15T08:42:18.710Z,5.32
2019-02-15T08:44:47.950Z,5.38
2019-02-15T08:47:17.142Z,5.49
2019-02-15T08:49:46.503Z,5.61
2019-02-15T08:52:15.792Z,5.68
2019-02-15T08:54:44.975Z,5.77
2019-02-15T08:57:14.538Z,5.76
2019-02-15T08:59:43.977Z,5.81
2019-02-15T09:02:20.152Z,5.85
2019-02-15T09:04:49.366Z,5.88
2019-02-15T09:07:18.622Z,5.92
2019-02-15T09:09:48.208Z,6.05
2019-02-15T09:12:17.431Z,6.13
2019-02-15T09:14:46.926Z,6.26
2019-02-15T09:17:16.405Z,6.35
2019-02-15T09:19:45.792Z,6.34
2019-02-15T09:22:15.107Z,6.40
2019-02-15T09:24:44.510Z,6.45
2019-02-15T09:27:33.960Z,6.48
2019-02-15T09:30:03.690Z,6.48
2019-02-15T09:32:32.884Z,6.49
2019-02-15T09:35:02.100Z,6.67
2019-02-15T09:37:31.694Z,6.80
2019-02-15T09:40:00.876Z,6.87
2019-02-15T09:42:30.155Z,7.03
2019-02-15T09:44:59.466Z,7.29
2019-02-15T09:47:28.672Z,7.49
2019-02-15T09:49:57.879Z,7.64
2019-02-15T09:52:27.599Z,7.58
2019-02-15T09:54:56.794Z,7.52
2019-02-15T09:57:26.015Z,7.36
2019-02-15T09:59:55.498Z,7.24
2019-02-15T10:02:24.867Z,7.21
2019-02-15T10:04:54.115Z,7.21
2019-02-15T10:07:23.497Z,7.20
2019-02-15T10:09:52.687Z,7.28
2019-02-15T10:12:21.902Z,7.44
2019-02-15T10:14:51.290Z,7.54
2019-02-15T10:17:20.490Z,7.66
2019-02-15T10:19:50.008Z,7.91
2019-02-15T10:22:19.456Z,8.08
2019-02-15T10:24:48.736Z,8.10
2019-02-15T10:27:17.964Z,8.00
2019-02-15T10:29:49.767Z,7.87
2019-02-15T10:32:19.102Z,7.99
2019-02-15T10:34:48.415Z,8.09
2019-02-15T10:37:17.985Z,8.17
2019-02-15T10:39:47.428Z,8.33
2019-02-15T10:42:16.635Z,8.41
2019-02-15T10:44:46.067Z,8.54
2019-02-15T10:47:24.446Z,8.64
2019-02-15T10:49:46.215Z,8.71
2019-02-15T10:52:15.612Z,8.89
2019-02-15T10:54:45.100Z,8.97
2019-02-15T10:57:14.343Z,8.83
2019-02-15T10:59:43.812Z,8.93
2019-02-15T11:02:12.997Z,8.86
2019-02-15T11:04:42.310Z,8.86
2019-02-15T11:07:12.024Z,8.82
2019-02-15T11:09:41.229Z,8.94
2019-02-15T11:12:10.490Z,9.01
2019-02-15T11:14:39.758Z,9.08
2019-02-15T11:17:08.971Z,9.28
2019-02-15T11:19:38.187Z,9.28
2019-02-15T11:22:07.645Z,9.33
2019-02-15T11:24:36.940Z,9.13
2019-02-15T11:27:06.291Z,9.13
2019-02-15T11:29:35.772Z,9.13
2019-02-15T11:32:05.674Z,9.26
2019-02-15T11:34:35.004Z,9.23
2019-02-15T11:37:04.441Z,9.23
2019-02-15T11:39:33.720Z,9.52
2019-02-15T11:42:03.060Z,9.71
2019-02-15T11:44:32.544Z,9.62
2019-02-15T11:47:01.771Z,9.59
2019-02-15T11:49:32.320Z,9.73
2019-02-15T11:52:01.792Z,9.85
2019-02-15T11:54:31.092Z,9.97
2019-02-15T11:57:00.329Z,10.12
2019-02-15T11:59:29.781Z,10.23
2019-02-15T12:02:05.845Z,10.16
2019-02-15T12:04:30.629Z,10.21
2019-02-15T12:06:59.829Z,10.34
2019-02-15T12:09:29.021Z,10.38
2019-02-15T12:11:58.469Z,10.48
2019-02-15T12:14:27.685Z,10.53
2019-02-15T12:17:05.248Z,10.55
2019-02-15T12:19:27.912Z,10.83
2019-02-15T12:21:57.110Z,10.74
2019-02-15T12:24:26.393Z,10.63
2019-02-15T12:26:56.071Z,10.47
2019-02-15T12:29:25.327Z,10.53
2019-02-15T12:31:54.545Z,10.66
2019-02-15T12:34:24.072Z,10.77
2019-02-15T12:36:53.304Z,10.56
2019-02-15T12:39:22.540Z,10.54
2019-02-15T12:41:51.963Z,10.38
2019-02-15T12:44:21.188Z,10.28
2019-02-15T12:46:50.384Z,10.19
2019-02-15T12:49:19.871Z,10.03
2019-02-15T12:51:49.087Z,9.93
2019-02-15T12:54:18.482Z,9.99
2019-02-15T12:56:48.017Z,9.98
2019-02-15T12:59:18.522Z,9.95
2019-02-15T13:01:47.728Z,9.74
2019-02-15T13:04:17.304Z,9.58
2019-02-15T13:06:46.979Z,9.58
2019-02-15T13:09:16.495Z,9.48
2019-02-15T13:11:48.098Z,9.37
2019-02-15T13:14:17.485Z,9.28
2019-02-15T13:16:46.727Z,9.30
2019-02-15T13:19:16.029Z,9.33
2019-02-15T13:21:45.224Z,9.20
2019-02-15T13:24:14.431Z,9.22
2019-02-15T13:26:43.781Z,8.31
2019-02-15T13:29:13.139Z,9.27
2019-02-15T13:31:42.319Z,9.14
2019-02-15T13:34:11.740Z,8.94
2019-02-15T13:36:41.033Z,9.16
2019-02-15T13:39:10.649Z,9.10
2019-02-15T13:41:40.114Z,9.22
2019-02-15T13:44:09.460Z,9.23
2019-02-15T13:46:38.666Z,9.10
2019-02-15T13:49:08.070Z,9.02
2019-02-15T13:51:37.267Z,8.99
2019-02-15T13:54:06.479Z,9.00
2019-02-15T13:56:36.082Z,8.96
2019-02-15T13:59:05.282Z,8.98
2019-02-15T14:01:34.682Z,8.95
2019-02-15T14:04:04.295Z,8.84
2019-02-15T14:06:33.498Z,8.69
2019-02-15T14:09:02.819Z,8.47
2019-02-15T14:11:32.305Z,8.34
2019-02-15T14:14:01.522Z,8.21
2019-02-15T14:16:30.733Z,8.12
2019-02-15T14:19:02.968Z,8.10
2019-02-15T14:21:32.139Z,7.99
2019-02-15T14:24:01.352Z,7.89
2019-02-15T14:26:30.899Z,7.84
2019-02-15T14:29:00.149Z,7.81
2019-02-15T14:31:29.640Z,7.78
2019-02-15T14:33:59.169Z,7.69
2019-02-15T14:36:28.373Z,7.64
2019-02-15T14:38:57.566Z,7.61
2019-02-15T14:41:27.290Z,7.59
2019-02-15T14:43:56.545Z,7.50
2019-02-15T14:46:25.748Z,7.44
2019-02-15T14:48:55.088Z,7.39
2019-02-15T14:51:24.318Z,7.35
2019-02-15T14:53:53.756Z,7.31
2019-02-15T14:56:23.076Z,7.31
2019-02-15T14:58:52.255Z,7.23
2019-02-15T15:01:22.169Z,7.16
2019-02-15T15:03:51.521Z,7.13
2019-02-15T15:06:20.728Z,7.10
2019-02-15T15:08:49.909Z,7.05
2019-02-15T15:11:19.482Z,7.02
2019-02-15T15:13:48.814Z,6.98
2019-02-15T15:16:18.594Z,6.94
2019-02-15T15:18:48.100Z,6.90
2019-02-15T15:21:17.295Z,6.87
2019-02-15T15:23:46.499Z,6.81
2019-02-15T15:26:15.834Z,6.77
2019-02-15T15:28:45.021Z,6.74
2019-02-15T15:31:14.223Z,6.75
2019-02-15T15:33:43.814Z,6.72
2019-02-15T15:36:13.006Z,6.70
2019-02-15T15:38:42.312Z,6.66
2019-02-15T15:41:11.804Z,6.63
2019-02-15T15:43:41.000Z,6.58
2019-02-15T15:46:10.187Z,6.56
2019-02-15T15:48:39.594Z,6.50
2019-02-15T15:51:08.790Z,6.47
2019-02-15T15:53:37.981Z,6.44
2019-02-15T15:56:07.304Z,6.43
2019-02-15T15:58:36.497Z,6.42
2019-02-15T16:01:05.961Z,6.41
2019-02-15T16:03:35.611Z,6.40
2019-02-15T16:06:05.244Z,6.34
2019-02-15T16:08:34.495Z,6.29
2019-02-15T16:11:03.901Z,6.25
2019-02-15T16:13:33.086Z,6.22
2019-02-15T16:16:02.329Z,6.22
2019-02-15T16:18:34.783Z,6.19
2019-02-15T16:21:02.750Z,6.17
2019-02-15T16:23:32.147Z,6.15
2019-02-15T16:26:02.424Z,6.12
2019-02-15T16:28:31.623Z,6.12
2019-02-15T16:31:01.182Z,6.10
2019-02-15T16:33:30.394Z,6.10
2019-02-15T16:35:59.673Z,6.07
2019-02-15T16:38:28.944Z,6.08
2019-02-15T16:40:58.213Z,6.08
2019-02-15T16:43:27.405Z,6.08
2019-02-15T16:45:56.698Z,6.02
2019-02-15T16:48:25.960Z,6.00
2019-02-15T16:50:55.177Z,5.97
2019-02-15T16:53:24.539Z,5.94
2019-02-15T16:55:53.782Z,5.92
2019-02-15T16:58:23.932Z,5.90
2019-02-15T17:00:53.311Z,5.85
2019-02-15T17:03:22.622Z,5.84
2019-02-15T17:05:51.799Z,5.80
2019-02-15T17:08:21.167Z,5.78
2019-02-15T17:10:50.469Z,5.77
2019-02-15T17:13:19.701Z,5.76
2019-02-15T17:15:49.005Z,5.73
2019-02-15T17:18:18.300Z,5.71
2019-02-15T17:20:47.515Z,5.69
2019-02-15T17:23:16.955Z,5.67
2019-02-15T17:25:46.309Z,5.64
2019-02-15T17:28:15.549Z,5.61
2019-02-15T17:30:46.157Z,5.59
2019-02-15T17:33:15.515Z,5.55
2019-02-15T17:35:44.698Z,5.54
2019-02-15T17:38:14.244Z,5.50
2019-02-15T17:40:43.484Z,5.48
2019-02-15T17:43:12.696Z,5.45
2019-02-15T17:45:41.997Z,5.43
2019-02-15T17:48:11.227Z,5.42
2019-02-15T17:50:40.500Z,5.42
2019-02-15T17:53:09.849Z,5.39
2019-02-15T17:55:41.468Z,5.36
2019-02-15T17:58:10.687Z,5.34
2019-02-15T18:00:40.051Z,5.29
2019-02-15T18:03:09.282Z,5.30
2019-02-15T18:05:38.506Z,5.27
2019-02-15T18:08:07.877Z,5.25
2019-02-15T18:10:37.168Z,5.23
2019-02-15T18:13:06.349Z,5.22
2019-02-15T18:15:37.019Z,5.20
2019-02-15T18:18:06.276Z,5.16
2019-02-15T18:20:35.822Z,5.12
2019-02-15T18:23:05.270Z,5.08
2019-02-15T18:25:34.497Z,5.06
2019-02-15T18:28:03.711Z,4.21
2019-02-15T18:30:33.438Z,5.01
2019-02-15T18:33:02.702Z,4.99
2019-02-15T18:35:31.919Z,4.97
2019-02-15T18:38:01.317Z,4.95
2019-02-15T18:40:30.696Z,4.94
2019-02-15T18:42:59.882Z,4.92
2019-02-15T18:45:29.331Z,4.88
2019-02-15T18:47:58.602Z,4.87
2019-02-15T18:50:27.832Z,4.85
2019-02-15T18:52:57.147Z,4.84
2019-02-15T18:55:26.628Z,4.84
2019-02-15T18:57:55.858Z,4.81
2019-02-15T19:00:25.177Z,4.79
2019-02-15T19:02:54.418Z,4.79
2019-02-15T19:05:23.794Z,4.78
2019-02-15T19:07:53.162Z,4.77
2019-02-15T19:10:24.329Z,4.74
2019-02-15T19:12:53.539Z,4.72
2019-02-15T19:15:22.931Z,4.69
2019-02-15T19:17:52.374Z,4.67
2019-02-15T19:20:21.704Z,4.66
2019-02-15T19:22:51.165Z,4.67
2019-02-15T19:25:20.522Z,4.63
2019-02-15T19:27:49.730Z,4.61
2019-02-15T19:30:21.109Z,4.59
2019-02-15T19:32:50.357Z,4.60
2019-02-15T19:35:19.542Z,4.57
2019-02-15T19:37:49.005Z,4.53
2019-02-15T19:40:18.429Z,4.55
2019-02-15T19:42:49.376Z,4.55
2019-02-15T19:45:18.853Z,4.55
2019-02-15T19:47:48.105Z,4.55
2019-02-15T19:50:17.770Z,4.52
2019-02-15T19:52:47.764Z,4.49
2019-02-15T19:55:17.041Z,4.49
2019-02-15T19:57:46.251Z,4.50
2019-02-15T20:00:17.367Z,4.49
2019-02-15T20:02:46.720Z,4.55
2019-02-15T20:05:15.908Z,4.55
2019-02-15T20:07:45.441Z,4.54
2019-02-15T20:10:16.689Z,4.53
2019-02-15T20:12:46.022Z,4.50
2019-02-15T20:15:15.446Z,4.52
2019-02-15T20:17:44.688Z,4.53
2019-02-15T20:20:14.194Z,4.54
2019-02-15T20:22:43.460Z,4.52
2019-02-15T20:25:13.206Z,4.55
2019-02-15T20:27:42.505Z,4.60
2019-02-15T20:30:14.125Z,4.59
2019-02-15T20:32:43.518Z,4.56
2019-02-15T20:35:13.584Z,4.58
2019-02-15T20:37:45.140Z,4.56
2019-02-15T20:40:14.581Z,4.54
2019-02-15T20:42:43.737Z,4.53
2019-02-15T20:45:18.298Z,4.53
2019-02-15T20:47:47.582Z,4.53
2019-02-15T20:50:20.016Z,4.49
2019-02-15T20:52:49.229Z,4.47
2019-02-15T20:55:18.530Z,4.48
2019-02-15T20:57:48.083Z,4.45
2019-02-15T21:00:22.078Z,4.46
2019-02-15T21:02:52.662Z,4.43
2019-02-15T21:05:21.880Z,4.43
2019-02-15T21:07:51.079Z,4.43
2019-02-15T21:10:20.446Z,4.46
2019-02-15T21:12:49.717Z,4.47
2019-02-15T21:15:19.031Z,4.47
2019-02-15T21:17:48.559Z,4.51
2019-02-15T21:20:17.840Z,4.49
2019-02-15T21:22:47.063Z,4.49
2019-02-15T21:25:16.585Z,4.52
2019-02-15T21:27:45.847Z,4.50
2019-02-15T21:30:15.396Z,4.55
2019-02-15T21:32:44.979Z,4.56
2019-02-15T21:35:14.624Z,4.58
2019-02-15T21:37:43.903Z,4.58
2019-02-15T21:40:14.220Z,4.62
2019-02-15T21:42:43.419Z,4.65
2019-02-15T21:45:13.011Z,4.65
2019-02-15T21:47:42.810Z,4.63
2019-02-15T21:50:17.037Z,4.63
2019-02-15T21:52:44.474Z,4.63
2019-02-15T21:55:14.190Z,4.61
2019-02-15T21:57:43.588Z,4.64
2019-02-15T22:00:16.657Z,4.66
2019-02-15T22:02:45.840Z,4.66
2019-02-15T22:05:16.050Z,4.66
2019-02-15T22:07:45.383Z,4.66
2019-02-15T22:10:14.693Z,4.65
2019-02-15T22:12:44.039Z,4.65
2019-02-15T22:15:13.395Z,4.66
2019-02-15T22:17:42.631Z,4.66
2019-02-15T22:20:12.746Z,4.67
2019-02-15T22:22:42.024Z,4.70
2019-02-15T22:25:11.417Z,4.70
2019-02-15T22:27:40.709Z,4.70
2019-02-15T22:30:12.278Z,4.68
2019-02-15T22:32:42.578Z,4.71
2019-02-15T22:35:11.944Z,4.75
2019-02-15T22:37:41.277Z,4.73
2019-02-15T22:40:33.282Z,4.72
2019-02-15T22:43:08.677Z,4.74
2019-02-15T22:45:37.898Z,4.80
2019-02-15T22:48:07.186Z,4.84
2019-02-15T22:50:36.630Z,4.89
2019-02-15T22:53:05.795Z,4.91
2019-02-15T22:55:34.977Z,4.94
2019-02-15T22:58:04.838Z,4.99
2019-02-15T23:00:49.658Z,5.02
2019-02-15T23:03:21.045Z,5.04
2019-02-15T23:05:50.282Z,5.12
2019-02-15T23:08:19.584Z,5.13
2019-02-15T23:10:49.013Z,5.12
2019-02-15T23:13:18.450Z,5.15
2019-02-15T23:15:47.792Z,5.17
2019-02-15T23:18:18.899Z,5.18
2019-02-15T23:20:48.331Z,5.14
2019-02-15T23:23:17.546Z,5.09
2019-02-15T23:25:46.946Z,5.07
2019-02-15T23:28:16.244Z,5.10
2019-02-15T23:30:45.475Z,5.15
2019-02-15T23:33:14.678Z,5.14
2019-02-15T23:35:43.965Z,5.11
2019-02-15T23:38:13.263Z,5.11
2019-02-15T23:40:42.467Z,5.10
2019-02-15T23:43:11.767Z,5.11
2019-02-15T23:45:40.977Z,5.08
2019-02-15T23:48:10.255Z,5.09
2019-02-15T23:50:39.727Z,5.12
2019-02-15T23:53:08.947Z,5.11
2019-02-15T23:55:38.142Z,5.15
2019-02-15T23:58:07.496Z,5.18
